sensor_id;sensor_type;location;lat;lon;timestamp;P1;durP1;ratioP1;P2;durP2;ratioP2
20910;SDS011;10615;42.702;23.314;2023-12-22T00:00:43;27.48;;;17.27;;
20910;SDS011;10615;42.702;23.314;2023-12-22T00:01:47;26.80;;;16.83;;
20910;SDS011;10615;42.702;23.314;2023-12-22T00:02:47;25.95;;;16.20;;
20910;SDS011;10615;42.702;23.314;2023-12-22T00:03:48;26.70;;;16.83;;
20910;SDS011;10615;42.702;23.314;2023-12-22T00:04:50;29.33;;;18.90;;
20910;SDS011;10615;42.702;23.314;2023-12-22T00:05:50;26.77;;;17.70;;
20910;SDS011;10615;42.702;23.314;2023-12-22T00:06:51;39.67;;;24.70;;
20910;SDS011;10615;42.702;23.314;2023-12-22T00:07:52;40.80;;;24.48;;
20910;SDS011;10615;42.702;23.314;2023-12-22T00:08:53;38.60;;;25.20;;
20910;SDS011;10615;42.702;23.314;2023-12-22T00:09:54;36.83;;;23.63;;
20910;SDS011;10615;42.702;23.314;2023-12-22T00:10:54;34.75;;;22.65;;
20910;SDS011;10615;42.702;23.314;2023-12-22T00:11:55;36.95;;;23.58;;
20910;SDS011;10615;42.702;23.314;2023-12-22T00:12:56;34.03;;;20.58;;
20910;SDS011;10615;42.702;23.314;2023-12-22T00:13:56;31.92;;;18.55;;
20910;SDS011;10615;42.702;23.314;2023-12-22T00:14:57;32.47;;;18.13;;
20910;SDS011;10615;42.702;23.314;2023-12-22T00:15:58;28.83;;;18.45;;
20910;SDS011;10615;42.702;23.314;2023-12-22T00:17:00;28.17;;;17.33;;
20910;SDS011;10615;42.702;23.314;2023-12-22T00:18:00;30.63;;;19.52;;
20910;SDS011;10615;42.702;23.314;2023-12-22T00:19:01;29.98;;;19.08;;
20910;SDS011;10615;42.702;23.314;2023-12-22T00:20:02;32.40;;;18.92;;
20910;SDS011;10615;42.702;23.314;2023-12-22T00:21:04;31.65;;;18.65;;
20910;SDS011;10615;42.702;23.314;2023-12-22T00:22:09;29.60;;;17.88;;
20910;SDS011;10615;42.702;23.314;2023-12-22T00:23:10;31.60;;;19.02;;
20910;SDS011;10615;42.702;23.314;2023-12-22T00:24:10;30.88;;;19.08;;
20910;SDS011;10615;42.702;23.314;2023-12-22T00:25:11;29.90;;;18.02;;
20910;SDS011;10615;42.702;23.314;2023-12-22T00:26:12;29.60;;;17.50;;
20910;SDS011;10615;42.702;23.314;2023-12-22T00:27:15;30.88;;;17.42;;
20910;SDS011;10615;42.702;23.314;2023-12-22T00:28:15;26.88;;;17.40;;
20910;SDS011;10615;42.702;23.314;2023-12-22T00:29:16;29.65;;;18.10;;
20910;SDS011;10615;42.702;23.314;2023-12-22T00:30:17;27.40;;;17.50;;
20910;SDS011;10615;42.702;23.314;2023-12-22T00:31:17;29.17;;;18.15;;
20910;SDS011;10615;42.702;23.314;2023-12-22T00:32:18;30.23;;;18.65;;
20910;SDS011;10615;42.702;23.314;2023-12-22T00:33:19;29.45;;;17.95;;
20910;SDS011;10615;42.702;23.314;2023-12-22T00:34:21;27.95;;;17.65;;
20910;SDS011;10615;42.702;23.314;2023-12-22T00:35:22;29.00;;;18.13;;
20910;SDS011;10615;42.702;23.314;2023-12-22T00:36:23;30.50;;;20.30;;
20910;SDS011;10615;42.702;23.314;2023-12-22T00:37:24;29.63;;;18.58;;
20910;SDS011;10615;42.702;23.314;2023-12-22T00:38:25;31.55;;;18.77;;
20910;SDS011;10615;42.702;23.314;2023-12-22T00:39:26;30.27;;;19.10;;
20910;SDS011;10615;42.702;23.314;2023-12-22T00:40:26;38.45;;;21.20;;
20910;SDS011;10615;42.702;23.314;2023-12-22T00:41:27;35.05;;;20.35;;
20910;SDS011;10615;42.702;23.314;2023-12-22T00:42:28;31.90;;;20.42;;
20910;SDS011;10615;42.702;23.314;2023-12-22T00:43:29;33.75;;;21.05;;
20910;SDS011;10615;42.702;23.314;2023-12-22T00:44:29;33.38;;;18.95;;
20910;SDS011;10615;42.702;23.314;2023-12-22T00:45:30;32.83;;;19.50;;
20910;SDS011;10615;42.702;23.314;2023-12-22T00:46:31;32.53;;;19.55;;
20910;SDS011;10615;42.702;23.314;2023-12-22T00:47:32;33.42;;;20.50;;
20910;SDS011;10615;42.702;23.314;2023-12-22T00:48:35;32.47;;;20.63;;
20910;SDS011;10615;42.702;23.314;2023-12-22T00:49:36;33.88;;;19.80;;
20910;SDS011;10615;42.702;23.314;2023-12-22T00:50:37;37.95;;;21.20;;
20910;SDS011;10615;42.702;23.314;2023-12-22T00:51:37;35.38;;;20.90;;
20910;SDS011;10615;42.702;23.314;2023-12-22T00:52:38;31.98;;;19.27;;
20910;SDS011;10615;42.702;23.314;2023-12-22T00:53:39;33.85;;;19.85;;
20910;SDS011;10615;42.702;23.314;2023-12-22T00:54:39;32.70;;;18.75;;
20910;SDS011;10615;42.702;23.314;2023-12-22T00:55:40;34.55;;;18.20;;
20910;SDS011;10615;42.702;23.314;2023-12-22T00:56:41;33.38;;;19.60;;
20910;SDS011;10615;42.702;23.314;2023-12-22T00:57:42;31.30;;;19.25;;
20910;SDS011;10615;42.702;23.314;2023-12-22T00:58:43;27.30;;;17.77;;
20910;SDS011;10615;42.702;23.314;2023-12-22T00:59:43;28.48;;;18.23;;
20910;SDS011;10615;42.702;23.314;2023-12-22T01:00:47;29.80;;;17.98;;
20910;SDS011;10615;42.702;23.314;2023-12-22T01:01:48;29.10;;;18.63;;
20910;SDS011;10615;42.702;23.314;2023-12-22T01:02:49;30.98;;;19.58;;
20910;SDS011;10615;42.702;23.314;2023-12-22T01:03:50;30.80;;;18.17;;
20910;SDS011;10615;42.702;23.314;2023-12-22T01:04:50;28.67;;;17.30;;
20910;SDS011;10615;42.702;23.314;2023-12-22T01:05:51;26.70;;;16.58;;
20910;SDS011;10615;42.702;23.314;2023-12-22T01:06:52;29.65;;;16.83;;
20910;SDS011;10615;42.702;23.314;2023-12-22T01:07:53;32.25;;;17.40;;
20910;SDS011;10615;42.702;23.314;2023-12-22T01:08:53;29.27;;;17.65;;
20910;SDS011;10615;42.702;23.314;2023-12-22T01:09:54;26.83;;;17.67;;
20910;SDS011;10615;42.702;23.314;2023-12-22T01:10:55;27.17;;;17.08;;
20910;SDS011;10615;42.702;23.314;2023-12-22T01:11:56;31.42;;;17.83;;
20910;SDS011;10615;42.702;23.314;2023-12-22T01:12:56;29.83;;;18.23;;
20910;SDS011;10615;42.702;23.314;2023-12-22T01:13:57;28.60;;;17.80;;
20910;SDS011;10615;42.702;23.314;2023-12-22T01:14:58;28.38;;;18.05;;
20910;SDS011;10615;42.702;23.314;2023-12-22T01:15:59;30.20;;;17.83;;
20910;SDS011;10615;42.702;23.314;2023-12-22T01:16:59;29.70;;;17.42;;
20910;SDS011;10615;42.702;23.314;2023-12-22T01:18:00;31.02;;;18.40;;
20910;SDS011;10615;42.702;23.314;2023-12-22T01:19:01;23.73;;;15.05;;
20910;SDS011;10615;42.702;23.314;2023-12-22T01:20:02;27.52;;;17.02;;
20910;SDS011;10615;42.702;23.314;2023-12-22T01:21:03;29.83;;;16.38;;
20910;SDS011;10615;42.702;23.314;2023-12-22T01:22:04;26.30;;;16.20;;
20910;SDS011;10615;42.702;23.314;2023-12-22T01:23:04;23.13;;;14.70;;
20910;SDS011;10615;42.702;23.314;2023-12-22T01:24:05;24.48;;;14.30;;
20910;SDS011;10615;42.702;23.314;2023-12-22T01:25:06;21.08;;;13.73;;
20910;SDS011;10615;42.702;23.314;2023-12-22T01:26:07;23.00;;;14.43;;
20910;SDS011;10615;42.702;23.314;2023-12-22T01:27:08;22.40;;;14.07;;
20910;SDS011;10615;42.702;23.314;2023-12-22T01:28:12;25.30;;;14.50;;
20910;SDS011;10615;42.702;23.314;2023-12-22T01:29:13;25.10;;;14.05;;
20910;SDS011;10615;42.702;23.314;2023-12-22T01:30:13;22.40;;;14.20;;
20910;SDS011;10615;42.702;23.314;2023-12-22T01:31:14;22.88;;;14.13;;
20910;SDS011;10615;42.702;23.314;2023-12-22T01:32:15;24.10;;;13.73;;
20910;SDS011;10615;42.702;23.314;2023-12-22T01:33:16;19.63;;;12.63;;
20910;SDS011;10615;42.702;23.314;2023-12-22T01:34:17;21.60;;;13.43;;
20910;SDS011;10615;42.702;23.314;2023-12-22T01:35:17;21.20;;;13.30;;
20910;SDS011;10615;42.702;23.314;2023-12-22T01:36:18;21.48;;;13.43;;
20910;SDS011;10615;42.702;23.314;2023-12-22T01:37:19;20.80;;;13.32;;
20910;SDS011;10615;42.702;23.314;2023-12-22T01:38:19;21.25;;;12.90;;
20910;SDS011;10615;42.702;23.314;2023-12-22T01:39:20;23.10;;;13.43;;
20910;SDS011;10615;42.702;23.314;2023-12-22T01:40:21;21.00;;;13.35;;
20910;SDS011;10615;42.702;23.314;2023-12-22T01:41:22;20.90;;;13.35;;
20910;SDS011;10615;42.702;23.314;2023-12-22T01:42:23;26.73;;;15.20;;
20910;SDS011;10615;42.702;23.314;2023-12-22T01:43:23;23.92;;;14.27;;
20910;SDS011;10615;42.702;23.314;2023-12-22T01:44:24;23.45;;;14.02;;
20910;SDS011;10615;42.702;23.314;2023-12-22T01:45:25;23.80;;;13.35;;
20910;SDS011;10615;42.702;23.314;2023-12-22T01:46:25;25.40;;;15.15;;
20910;SDS011;10615;42.702;23.314;2023-12-22T01:47:26;24.30;;;14.70;;
20910;SDS011;10615;42.702;23.314;2023-12-22T01:48:27;23.60;;;14.82;;
20910;SDS011;10615;42.702;23.314;2023-12-22T01:49:29;28.23;;;16.65;;
20910;SDS011;10615;42.702;23.314;2023-12-22T01:50:30;25.23;;;15.38;;
20910;SDS011;10615;42.702;23.314;2023-12-22T01:51:31;25.65;;;15.00;;
20910;SDS011;10615;42.702;23.314;2023-12-22T01:52:34;25.30;;;15.43;;
20910;SDS011;10615;42.702;23.314;2023-12-22T01:53:36;28.65;;;16.17;;
20910;SDS011;10615;42.702;23.314;2023-12-22T01:54:37;26.52;;;15.88;;
20910;SDS011;10615;42.702;23.314;2023-12-22T01:55:38;25.38;;;15.57;;
20910;SDS011;10615;42.702;23.314;2023-12-22T01:56:39;27.30;;;16.17;;
20910;SDS011;10615;42.702;23.314;2023-12-22T01:57:40;27.52;;;17.25;;
20910;SDS011;10615;42.702;23.314;2023-12-22T01:58:41;27.83;;;17.70;;
20910;SDS011;10615;42.702;23.314;2023-12-22T01:59:43;26.92;;;17.25;;
20910;SDS011;10615;42.702;23.314;2023-12-22T02:00:44;29.55;;;18.23;;
20910;SDS011;10615;42.702;23.314;2023-12-22T02:01:45;34.53;;;20.88;;
20910;SDS011;10615;42.702;23.314;2023-12-22T02:02:47;40.58;;;26.58;;
20910;SDS011;10615;42.702;23.314;2023-12-22T02:03:48;35.83;;;23.17;;
20910;SDS011;10615;42.702;23.314;2023-12-22T02:04:52;37.35;;;22.90;;
20910;SDS011;10615;42.702;23.314;2023-12-22T02:05:53;34.90;;;21.40;;
20910;SDS011;10615;42.702;23.314;2023-12-22T02:06:54;32.22;;;20.17;;
20910;SDS011;10615;42.702;23.314;2023-12-22T02:07:55;29.70;;;19.40;;
20910;SDS011;10615;42.702;23.314;2023-12-22T02:08:56;28.50;;;17.13;;
20910;SDS011;10615;42.702;23.314;2023-12-22T02:09:58;30.23;;;16.25;;
20910;SDS011;10615;42.702;23.314;2023-12-22T02:10:58;26.40;;;16.65;;
20910;SDS011;10615;42.702;23.314;2023-12-22T02:11:59;29.95;;;16.75;;
20910;SDS011;10615;42.702;23.314;2023-12-22T02:13:00;26.02;;;16.70;;
20910;SDS011;10615;42.702;23.314;2023-12-22T02:14:01;26.52;;;16.83;;
20910;SDS011;10615;42.702;23.314;2023-12-22T02:15:01;30.63;;;16.35;;
20910;SDS011;10615;42.702;23.314;2023-12-22T02:16:06;26.85;;;16.63;;
20910;SDS011;10615;42.702;23.314;2023-12-22T02:17:15;25.08;;;16.05;;
20910;SDS011;10615;42.702;23.314;2023-12-22T02:18:24;24.58;;;15.85;;
20910;SDS011;10615;42.702;23.314;2023-12-22T02:19:41;27.20;;;17.23;;
20910;SDS011;10615;42.702;23.314;2023-12-22T02:20:43;27.75;;;16.15;;
20910;SDS011;10615;42.702;23.314;2023-12-22T02:22:03;25.23;;;16.45;;
20910;SDS011;10615;42.702;23.314;2023-12-22T02:23:04;29.88;;;17.55;;
20910;SDS011;10615;42.702;23.314;2023-12-22T02:24:05;30.70;;;17.50;;
20910;SDS011;10615;42.702;23.314;2023-12-22T02:25:06;35.10;;;19.73;;
20910;SDS011;10615;42.702;23.314;2023-12-22T02:27:45;44.78;;;27.05;;
20910;SDS011;10615;42.702;23.314;2023-12-22T02:28:49;43.45;;;25.35;;
20910;SDS011;10615;42.702;23.314;2023-12-22T02:30:11;47.75;;;28.33;;
20910;SDS011;10615;42.702;23.314;2023-12-22T02:31:30;48.08;;;28.40;;
20910;SDS011;10615;42.702;23.314;2023-12-22T02:32:45;47.58;;;28.58;;
20910;SDS011;10615;42.702;23.314;2023-12-22T02:33:49;49.50;;;29.58;;
20910;SDS011;10615;42.702;23.314;2023-12-22T02:34:53;51.40;;;30.42;;
20910;SDS011;10615;42.702;23.314;2023-12-22T02:35:58;53.60;;;29.95;;
20910;SDS011;10615;42.702;23.314;2023-12-22T02:37:05;53.88;;;28.48;;
20910;SDS011;10615;42.702;23.314;2023-12-22T02:38:11;50.78;;;28.70;;
20910;SDS011;10615;42.702;23.314;2023-12-22T02:39:13;49.35;;;28.83;;
20910;SDS011;10615;42.702;23.314;2023-12-22T02:40:16;46.22;;;27.63;;
20910;SDS011;10615;42.702;23.314;2023-12-22T02:41:19;48.53;;;28.80;;
20910;SDS011;10615;42.702;23.314;2023-12-22T02:42:20;54.33;;;29.88;;
20910;SDS011;10615;42.702;23.314;2023-12-22T02:43:24;49.65;;;28.02;;
20910;SDS011;10615;42.702;23.314;2023-12-22T02:44:25;52.17;;;28.77;;
20910;SDS011;10615;42.702;23.314;2023-12-22T02:45:27;46.25;;;28.08;;
20910;SDS011;10615;42.702;23.314;2023-12-22T02:46:27;48.63;;;28.88;;
20910;SDS011;10615;42.702;23.314;2023-12-22T02:47:28;47.25;;;28.35;;
20910;SDS011;10615;42.702;23.314;2023-12-22T02:48:29;45.58;;;27.05;;
20910;SDS011;10615;42.702;23.314;2023-12-22T02:49:30;46.80;;;27.88;;
20910;SDS011;10615;42.702;23.314;2023-12-22T02:50:30;44.50;;;26.77;;
20910;SDS011;10615;42.702;23.314;2023-12-22T02:51:31;45.72;;;27.38;;
20910;SDS011;10615;42.702;23.314;2023-12-22T02:52:32;45.13;;;26.20;;
20910;SDS011;10615;42.702;23.314;2023-12-22T02:53:33;46.72;;;26.95;;
20910;SDS011;10615;42.702;23.314;2023-12-22T02:54:34;48.15;;;26.60;;
20910;SDS011;10615;42.702;23.314;2023-12-22T02:55:35;47.35;;;28.00;;
20910;SDS011;10615;42.702;23.314;2023-12-22T02:56:35;45.03;;;27.73;;
20910;SDS011;10615;42.702;23.314;2023-12-22T02:57:36;45.95;;;27.80;;
20910;SDS011;10615;42.702;23.314;2023-12-22T02:58:37;51.92;;;30.30;;
20910;SDS011;10615;42.702;23.314;2023-12-22T02:59:38;49.25;;;27.98;;
20910;SDS011;10615;42.702;23.314;2023-12-22T03:00:38;43.30;;;26.38;;
20910;SDS011;10615;42.702;23.314;2023-12-22T03:01:40;47.28;;;25.55;;
20910;SDS011;10615;42.702;23.314;2023-12-22T03:02:41;42.30;;;25.05;;
20910;SDS011;10615;42.702;23.314;2023-12-22T03:03:41;43.05;;;25.63;;
20910;SDS011;10615;42.702;23.314;2023-12-22T03:04:42;42.13;;;24.13;;
20910;SDS011;10615;42.702;23.314;2023-12-22T03:05:43;38.58;;;23.13;;
20910;SDS011;10615;42.702;23.314;2023-12-22T03:06:43;39.00;;;23.33;;
20910;SDS011;10615;42.702;23.314;2023-12-22T03:07:44;35.63;;;21.88;;
20910;SDS011;10615;42.702;23.314;2023-12-22T03:08:45;38.83;;;22.10;;
20910;SDS011;10615;42.702;23.314;2023-12-22T03:09:46;36.50;;;21.55;;
20910;SDS011;10615;42.702;23.314;2023-12-22T03:10:46;35.92;;;22.23;;
20910;SDS011;10615;42.702;23.314;2023-12-22T03:11:47;34.10;;;20.80;;
20910;SDS011;10615;42.702;23.314;2023-12-22T03:12:49;38.58;;;21.48;;
20910;SDS011;10615;42.702;23.314;2023-12-22T03:13:49;34.50;;;21.55;;
20910;SDS011;10615;42.702;23.314;2023-12-22T03:14:50;35.20;;;21.35;;
20910;SDS011;10615;42.702;23.314;2023-12-22T03:15:51;35.28;;;21.45;;
20910;SDS011;10615;42.702;23.314;2023-12-22T03:16:51;36.25;;;22.15;;
20910;SDS011;10615;42.702;23.314;2023-12-22T03:17:52;35.83;;;21.38;;
20910;SDS011;10615;42.702;23.314;2023-12-22T03:18:53;37.15;;;21.35;;
20910;SDS011;10615;42.702;23.314;2023-12-22T03:19:54;34.45;;;20.85;;
20910;SDS011;10615;42.702;23.314;2023-12-22T03:20:54;34.17;;;20.30;;
20910;SDS011;10615;42.702;23.314;2023-12-22T03:21:55;34.83;;;21.02;;
20910;SDS011;10615;42.702;23.314;2023-12-22T03:22:59;33.90;;;20.83;;
20910;SDS011;10615;42.702;23.314;2023-12-22T03:23:59;38.20;;;21.35;;
20910;SDS011;10615;42.702;23.314;2023-12-22T03:25:00;37.15;;;20.42;;
20910;SDS011;10615;42.702;23.314;2023-12-22T03:26:04;31.05;;;19.95;;
20910;SDS011;10615;42.702;23.314;2023-12-22T03:27:05;34.08;;;19.13;;
20910;SDS011;10615;42.702;23.314;2023-12-22T03:28:05;33.70;;;19.55;;
20910;SDS011;10615;42.702;23.314;2023-12-22T03:29:07;31.90;;;19.30;;
20910;SDS011;10615;42.702;23.314;2023-12-22T03:30:08;30.52;;;19.52;;
20910;SDS011;10615;42.702;23.314;2023-12-22T03:31:09;34.97;;;19.60;;
20910;SDS011;10615;42.702;23.314;2023-12-22T03:32:10;31.50;;;18.73;;
20910;SDS011;10615;42.702;23.314;2023-12-22T03:33:10;29.60;;;17.08;;
20910;SDS011;10615;42.702;23.314;2023-12-22T03:34:11;27.88;;;16.70;;
20910;SDS011;10615;42.702;23.314;2023-12-22T03:35:13;29.08;;;17.75;;
20910;SDS011;10615;42.702;23.314;2023-12-22T03:36:14;28.73;;;17.48;;
20910;SDS011;10615;42.702;23.314;2023-12-22T03:37:15;29.05;;;18.33;;
20910;SDS011;10615;42.702;23.314;2023-12-22T03:38:15;32.15;;;19.73;;
20910;SDS011;10615;42.702;23.314;2023-12-22T03:39:16;30.45;;;18.60;;
20910;SDS011;10615;42.702;23.314;2023-12-22T03:40:17;32.58;;;18.48;;
20910;SDS011;10615;42.702;23.314;2023-12-22T03:41:18;32.47;;;18.92;;
20910;SDS011;10615;42.702;23.314;2023-12-22T03:42:18;31.17;;;18.20;;
20910;SDS011;10615;42.702;23.314;2023-12-22T03:43:19;30.90;;;18.35;;
20910;SDS011;10615;42.702;23.314;2023-12-22T03:44:20;30.52;;;18.25;;
20910;SDS011;10615;42.702;23.314;2023-12-22T03:45:21;31.05;;;19.15;;
20910;SDS011;10615;42.702;23.314;2023-12-22T03:46:22;30.10;;;18.60;;
20910;SDS011;10615;42.702;23.314;2023-12-22T03:47:23;28.42;;;18.20;;
20910;SDS011;10615;42.702;23.314;2023-12-22T03:48:24;29.30;;;18.00;;
20910;SDS011;10615;42.702;23.314;2023-12-22T03:49:24;28.70;;;17.95;;
20910;SDS011;10615;42.702;23.314;2023-12-22T03:50:25;32.95;;;18.05;;
20910;SDS011;10615;42.702;23.314;2023-12-22T03:51:26;26.90;;;17.83;;
20910;SDS011;10615;42.702;23.314;2023-12-22T03:52:26;32.65;;;19.02;;
20910;SDS011;10615;42.702;23.314;2023-12-22T03:53:27;30.88;;;19.00;;
20910;SDS011;10615;42.702;23.314;2023-12-22T03:54:28;29.20;;;17.98;;
20910;SDS011;10615;42.702;23.314;2023-12-22T03:55:29;26.88;;;17.38;;
20910;SDS011;10615;42.702;23.314;2023-12-22T03:56:29;31.27;;;18.88;;
20910;SDS011;10615;42.702;23.314;2023-12-22T03:57:30;32.60;;;17.92;;
20910;SDS011;10615;42.702;23.314;2023-12-22T03:58:31;27.52;;;17.58;;
20910;SDS011;10615;42.702;23.314;2023-12-22T03:59:31;31.55;;;19.25;;
20910;SDS011;10615;42.702;23.314;2023-12-22T04:00:32;32.08;;;18.83;;
20910;SDS011;10615;42.702;23.314;2023-12-22T04:01:34;29.48;;;18.63;;
20910;SDS011;10615;42.702;23.314;2023-12-22T04:02:35;30.40;;;18.83;;
20910;SDS011;10615;42.702;23.314;2023-12-22T04:03:36;33.25;;;19.55;;
20910;SDS011;10615;42.702;23.314;2023-12-22T04:04:39;31.20;;;18.90;;
20910;SDS011;10615;42.702;23.314;2023-12-22T04:05:40;30.95;;;19.35;;
20910;SDS011;10615;42.702;23.314;2023-12-22T04:06:41;29.60;;;19.42;;
20910;SDS011;10615;42.702;23.314;2023-12-22T04:07:41;37.05;;;22.90;;
20910;SDS011;10615;42.702;23.314;2023-12-22T04:08:42;31.63;;;18.83;;
20910;SDS011;10615;42.702;23.314;2023-12-22T04:09:43;29.92;;;18.27;;
20910;SDS011;10615;42.702;23.314;2023-12-22T04:10:44;29.85;;;18.65;;
20910;SDS011;10615;42.702;23.314;2023-12-22T04:11:44;29.73;;;18.40;;
20910;SDS011;10615;42.702;23.314;2023-12-22T04:12:45;27.60;;;18.08;;
20910;SDS011;10615;42.702;23.314;2023-12-22T04:13:46;34.42;;;18.45;;
20910;SDS011;10615;42.702;23.314;2023-12-22T04:14:46;30.40;;;18.35;;
20910;SDS011;10615;42.702;23.314;2023-12-22T04:15:47;30.08;;;17.27;;
20910;SDS011;10615;42.702;23.314;2023-12-22T04:16:48;29.90;;;18.67;;
20910;SDS011;10615;42.702;23.314;2023-12-22T04:17:49;27.02;;;16.70;;
20910;SDS011;10615;42.702;23.314;2023-12-22T04:18:50;26.40;;;17.00;;
20910;SDS011;10615;42.702;23.314;2023-12-22T04:19:50;31.90;;;17.63;;
20910;SDS011;10615;42.702;23.314;2023-12-22T04:20:52;27.92;;;17.92;;
20910;SDS011;10615;42.702;23.314;2023-12-22T04:21:55;29.63;;;17.67;;
20910;SDS011;10615;42.702;23.314;2023-12-22T04:22:56;28.05;;;17.63;;
20910;SDS011;10615;42.702;23.314;2023-12-22T04:23:56;28.65;;;17.58;;
20910;SDS011;10615;42.702;23.314;2023-12-22T04:24:57;33.17;;;19.00;;
20910;SDS011;10615;42.702;23.314;2023-12-22T04:25:58;27.70;;;17.30;;
20910;SDS011;10615;42.702;23.314;2023-12-22T04:26:59;30.85;;;18.40;;
20910;SDS011;10615;42.702;23.314;2023-12-22T04:27:59;27.67;;;17.75;;
20910;SDS011;10615;42.702;23.314;2023-12-22T04:29:00;29.13;;;18.50;;
20910;SDS011;10615;42.702;23.314;2023-12-22T04:30:01;27.27;;;18.02;;
20910;SDS011;10615;42.702;23.314;2023-12-22T04:31:02;30.10;;;18.92;;
20910;SDS011;10615;42.702;23.314;2023-12-22T04:32:03;42.88;;;22.15;;
20910;SDS011;10615;42.702;23.314;2023-12-22T04:33:03;33.92;;;20.60;;
20910;SDS011;10615;42.702;23.314;2023-12-22T04:34:04;40.33;;;23.25;;
20910;SDS011;10615;42.702;23.314;2023-12-22T04:35:05;39.25;;;22.30;;
20910;SDS011;10615;42.702;23.314;2023-12-22T04:36:06;35.22;;;20.38;;
20910;SDS011;10615;42.702;23.314;2023-12-22T04:37:07;44.70;;;24.33;;
20910;SDS011;10615;42.702;23.314;2023-12-22T04:38:07;59.13;;;29.10;;
20910;SDS011;10615;42.702;23.314;2023-12-22T04:39:08;38.45;;;22.02;;
20910;SDS011;10615;42.702;23.314;2023-12-22T04:40:09;35.65;;;20.27;;
20910;SDS011;10615;42.702;23.314;2023-12-22T04:41:10;39.88;;;22.27;;
20910;SDS011;10615;42.702;23.314;2023-12-22T04:42:11;33.75;;;19.17;;
20910;SDS011;10615;42.702;23.314;2023-12-22T04:43:12;32.33;;;19.42;;
20910;SDS011;10615;42.702;23.314;2023-12-22T04:44:12;35.83;;;19.65;;
20910;SDS011;10615;42.702;23.314;2023-12-22T04:45:13;35.08;;;19.73;;
20910;SDS011;10615;42.702;23.314;2023-12-22T04:46:14;38.67;;;22.15;;
20910;SDS011;10615;42.702;23.314;2023-12-22T04:47:15;42.22;;;23.00;;
20910;SDS011;10615;42.702;23.314;2023-12-22T04:48:15;48.65;;;25.92;;
20910;SDS011;10615;42.702;23.314;2023-12-22T04:49:16;42.42;;;23.83;;
20910;SDS011;10615;42.702;23.314;2023-12-22T04:50:18;45.80;;;24.83;;
20910;SDS011;10615;42.702;23.314;2023-12-22T04:51:19;54.30;;;27.67;;
20910;SDS011;10615;42.702;23.314;2023-12-22T04:52:19;43.63;;;22.13;;
20910;SDS011;10615;42.702;23.314;2023-12-22T04:53:20;36.30;;;19.77;;
20910;SDS011;10615;42.702;23.314;2023-12-22T04:54:21;35.58;;;21.33;;
20910;SDS011;10615;42.702;23.314;2023-12-22T04:55:22;36.78;;;21.88;;
20910;SDS011;10615;42.702;23.314;2023-12-22T04:56:22;38.05;;;21.70;;
20910;SDS011;10615;42.702;23.314;2023-12-22T04:57:24;36.97;;;21.58;;
20910;SDS011;10615;42.702;23.314;2023-12-22T04:58:24;38.78;;;22.92;;
20910;SDS011;10615;42.702;23.314;2023-12-22T04:59:25;45.88;;;25.92;;
20910;SDS011;10615;42.702;23.314;2023-12-22T05:00:26;46.00;;;25.40;;
20910;SDS011;10615;42.702;23.314;2023-12-22T05:01:27;39.70;;;22.15;;
20910;SDS011;10615;42.702;23.314;2023-12-22T05:02:27;34.38;;;22.25;;
20910;SDS011;10615;42.702;23.314;2023-12-22T05:03:29;34.83;;;19.90;;
20910;SDS011;10615;42.702;23.314;2023-12-22T05:04:29;37.20;;;19.23;;
20910;SDS011;10615;42.702;23.314;2023-12-22T05:05:30;32.95;;;20.05;;
20910;SDS011;10615;42.702;23.314;2023-12-22T05:06:31;33.90;;;19.88;;
20910;SDS011;10615;42.702;23.314;2023-12-22T05:07:32;31.85;;;19.73;;
20910;SDS011;10615;42.702;23.314;2023-12-22T05:08:32;31.67;;;20.70;;
20910;SDS011;10615;42.702;23.314;2023-12-22T05:09:34;31.35;;;19.05;;
20910;SDS011;10615;42.702;23.314;2023-12-22T05:10:35;29.20;;;18.55;;
20910;SDS011;10615;42.702;23.314;2023-12-22T05:11:35;30.00;;;18.63;;
20910;SDS011;10615;42.702;23.314;2023-12-22T05:12:36;29.02;;;18.63;;
20910;SDS011;10615;42.702;23.314;2023-12-22T05:13:37;29.35;;;17.48;;
20910;SDS011;10615;42.702;23.314;2023-12-22T05:14:38;26.20;;;16.42;;
20910;SDS011;10615;42.702;23.314;2023-12-22T05:15:38;30.67;;;17.83;;
20910;SDS011;10615;42.702;23.314;2023-12-22T05:16:39;27.52;;;17.83;;
20910;SDS011;10615;42.702;23.314;2023-12-22T05:17:40;28.90;;;17.95;;
20910;SDS011;10615;42.702;23.314;2023-12-22T05:18:41;29.23;;;18.40;;
20910;SDS011;10615;42.702;23.314;2023-12-22T05:19:41;27.40;;;17.67;;
20910;SDS011;10615;42.702;23.314;2023-12-22T05:20:42;27.27;;;17.77;;
20910;SDS011;10615;42.702;23.314;2023-12-22T05:21:43;28.70;;;18.02;;
20910;SDS011;10615;42.702;23.314;2023-12-22T05:22:44;28.00;;;17.75;;
20910;SDS011;10615;42.702;23.314;2023-12-22T05:23:45;31.67;;;17.33;;
20910;SDS011;10615;42.702;23.314;2023-12-22T05:24:46;27.85;;;17.75;;
20910;SDS011;10615;42.702;23.314;2023-12-22T05:25:46;31.27;;;17.80;;
20910;SDS011;10615;42.702;23.314;2023-12-22T05:26:47;30.17;;;17.10;;
20910;SDS011;10615;42.702;23.314;2023-12-22T05:27:48;26.58;;;17.15;;
20910;SDS011;10615;42.702;23.314;2023-12-22T05:28:49;26.63;;;16.13;;
20910;SDS011;10615;42.702;23.314;2023-12-22T05:29:50;32.45;;;18.73;;
20910;SDS011;10615;42.702;23.314;2023-12-22T05:30:50;27.85;;;18.33;;
20910;SDS011;10615;42.702;23.314;2023-12-22T05:31:51;31.38;;;19.58;;
20910;SDS011;10615;42.702;23.314;2023-12-22T05:32:52;28.95;;;17.85;;
20910;SDS011;10615;42.702;23.314;2023-12-22T05:33:54;26.20;;;17.10;;
20910;SDS011;10615;42.702;23.314;2023-12-22T05:34:55;33.40;;;17.42;;
20910;SDS011;10615;42.702;23.314;2023-12-22T05:35:55;31.77;;;17.17;;
20910;SDS011;10615;42.702;23.314;2023-12-22T05:36:56;28.27;;;17.25;;
20910;SDS011;10615;42.702;23.314;2023-12-22T05:37:57;26.40;;;16.55;;
20910;SDS011;10615;42.702;23.314;2023-12-22T05:38:58;26.20;;;16.67;;
20910;SDS011;10615;42.702;23.314;2023-12-22T05:39:58;27.88;;;15.85;;
20910;SDS011;10615;42.702;23.314;2023-12-22T05:40:59;28.70;;;17.17;;
20910;SDS011;10615;42.702;23.314;2023-12-22T05:42:00;27.42;;;18.13;;
20910;SDS011;10615;42.702;23.314;2023-12-22T05:43:01;25.40;;;17.27;;
20910;SDS011;10615;42.702;23.314;2023-12-22T05:44:01;25.75;;;16.42;;
20910;SDS011;10615;42.702;23.314;2023-12-22T05:45:02;25.10;;;15.75;;
20910;SDS011;10615;42.702;23.314;2023-12-22T05:46:03;25.13;;;16.80;;
20910;SDS011;10615;42.702;23.314;2023-12-22T05:47:04;24.95;;;16.48;;
20910;SDS011;10615;42.702;23.314;2023-12-22T05:48:05;28.35;;;16.77;;
20910;SDS011;10615;42.702;23.314;2023-12-22T05:49:07;25.27;;;16.65;;
20910;SDS011;10615;42.702;23.314;2023-12-22T05:50:08;25.90;;;16.20;;
20910;SDS011;10615;42.702;23.314;2023-12-22T05:51:08;28.27;;;17.98;;
20910;SDS011;10615;42.702;23.314;2023-12-22T05:52:13;27.80;;;18.52;;
20910;SDS011;10615;42.702;23.314;2023-12-22T05:53:14;27.85;;;18.35;;
20910;SDS011;10615;42.702;23.314;2023-12-22T05:54:15;29.02;;;18.70;;
20910;SDS011;10615;42.702;23.314;2023-12-22T05:55:17;30.23;;;20.08;;